createdAt,value
2018-03-08T00:00:37.528Z,45.84
2018-03-08T00:01:37.518Z,45.75
2018-03-08T00:02:37.510Z,45.75
2018-03-08T00:03:37.512Z,45.65
2018-03-08T00:04:37.496Z,45.56
2018-03-08T00:05:37.490Z,45.46
2018-03-08T00:06:37.485Z,45.27
2018-03-08T00:07:37.477Z,45.46
2018-03-08T00:08:37.471Z,46.04
2018-03-08T00:09:37.464Z,46.14
2018-03-08T00:10:37.457Z,46.14
2018-03-08T00:11:37.449Z,45.75
2018-03-08T00:12:37.443Z,46.04
2018-03-08T00:13:37.437Z,45.94
2018-03-08T00:14:37.430Z,46.04
2018-03-08T00:15:37.425Z,45.84
2018-03-08T00:16:37.414Z,45.84
2018-03-08T00:17:37.408Z,45.75
2018-03-08T00:18:37.402Z,46.04
2018-03-08T00:19:37.395Z,46.14
2018-03-08T00:20:37.386Z,45.84
2018-03-08T00:21:37.382Z,45.94
2018-03-08T00:22:37.378Z,45.75
2018-03-08T00:23:37.371Z,45.56
2018-03-08T00:24:37.363Z,45.56
2018-03-08T00:25:37.354Z,45.75
2018-03-08T00:26:37.351Z,45.56
2018-03-08T00:27:37.344Z,45.65
2018-03-08T00:28:37.336Z,46.04
2018-03-08T00:29:37.329Z,46.04
2018-03-08T00:30:37.321Z,45.84
2018-03-08T00:31:37.317Z,45.84
2018-03-08T00:32:37.308Z,45.84
2018-03-08T00:33:37.301Z,46.14
2018-03-08T00:34:37.296Z,46.42
2018-03-08T00:35:37.339Z,46.52
2018-03-08T00:36:37.281Z,46.42
2018-03-08T00:37:37.274Z,46.42
2018-03-08T00:38:37.268Z,46.42
2018-03-08T00:39:37.255Z,46.52
2018-03-08T00:40:37.255Z,46.33
2018-03-08T00:41:37.246Z,46.23
2018-03-08T00:42:37.241Z,46.14
2018-03-08T00:43:37.234Z,46.04
2018-03-08T00:44:37.228Z,46.14
2018-03-08T00:45:37.223Z,46.23
2018-03-08T00:46:37.215Z,46.33
2018-03-08T00:47:37.211Z,46.33
2018-03-08T00:48:37.199Z,46.62
2018-03-08T00:49:37.196Z,46.62
2018-03-08T00:50:37.188Z,46.71
2018-03-08T00:51:37.180Z,46.81
2018-03-08T00:52:37.174Z,46.33
2018-03-08T00:53:37.167Z,46.62
2018-03-08T00:54:37.161Z,46.42
2018-03-08T00:55:37.157Z,46.62
2018-03-08T00:56:37.148Z,46.71
2018-03-08T00:57:37.142Z,46.52
2018-03-08T00:58:37.137Z,46.71
2018-03-08T00:59:37.157Z,46.91
2018-03-08T01:00:37.123Z,47.00
2018-03-08T01:01:37.120Z,47.00
2018-03-08T01:02:37.109Z,46.91
2018-03-08T01:03:37.102Z,46.33
2018-03-08T01:04:37.093Z,46.52
2018-03-08T01:05:37.088Z,46.71
2018-03-08T01:06:37.081Z,46.42
2018-03-08T01:07:37.075Z,47.00
2018-03-08T01:08:37.068Z,47.00
2018-03-08T01:09:37.061Z,46.91
2018-03-08T01:10:37.055Z,47.10
2018-03-08T01:11:37.049Z,47.10
2018-03-08T01:12:37.042Z,47.00
2018-03-08T01:13:37.035Z,46.91
2018-03-08T01:14:37.036Z,46.81
2018-03-08T01:15:37.021Z,46.71
2018-03-08T01:16:37.015Z,46.71
2018-03-08T01:17:37.009Z,46.91
2018-03-08T01:18:37.004Z,47.00
2018-03-08T01:19:36.995Z,47.10
2018-03-08T01:20:36.990Z,46.71
2018-03-08T01:21:36.982Z,47.29
2018-03-08T01:22:36.976Z,46.81
2018-03-08T01:23:36.967Z,47.00
2018-03-08T01:24:36.964Z,46.71
2018-03-08T01:25:36.955Z,46.91
2018-03-08T01:26:36.950Z,47.29
2018-03-08T01:27:36.940Z,47.19
2018-03-08T01:28:36.934Z,47.19
2018-03-08T01:29:36.928Z,47.19
2018-03-08T01:30:36.922Z,47.19
2018-03-08T01:31:36.915Z,47.19
2018-03-08T01:32:36.909Z,47.19
2018-03-08T01:33:36.902Z,47.29
2018-03-08T01:34:36.894Z,47.29
2018-03-08T01:35:36.888Z,47.49
2018-03-08T01:36:36.887Z,47.29
2018-03-08T01:37:36.876Z,47.19
2018-03-08T01:38:36.869Z,47.39
2018-03-08T01:39:36.864Z,47.29
2018-03-08T01:40:36.856Z,47.19
2018-03-08T01:41:36.849Z,47.19
2018-03-08T01:42:36.842Z,47.19
2018-03-08T01:43:36.841Z,47.19
2018-03-08T01:44:36.830Z,47.77
2018-03-08T01:45:36.824Z,47.67
2018-03-08T01:46:36.818Z,47.77
2018-03-08T01:47:36.811Z,47.87
2018-03-08T01:48:36.805Z,47.87
2018-03-08T01:49:36.797Z,47.67
2018-03-08T01:50:36.791Z,47.67
2018-03-08T01:51:36.784Z,47.49
2018-03-08T01:52:36.776Z,47.67
2018-03-08T01:53:36.769Z,47.49
2018-03-08T01:54:36.764Z,47.58
2018-03-08T01:55:36.757Z,47.58
2018-03-08T01:56:36.752Z,47.58
2018-03-08T01:57:36.745Z,47.49
2018-03-08T01:58:36.736Z,47.49
2018-03-08T01:59:36.735Z,47.49
2018-03-08T02:00:36.724Z,47.58
2018-03-08T02:01:36.717Z,47.58
2018-03-08T02:02:36.714Z,47.58
2018-03-08T02:03:36.704Z,47.19
2018-03-08T02:04:36.697Z,47.49
2018-03-08T02:05:36.694Z,47.58
2018-03-08T02:06:36.684Z,47.39
2018-03-08T02:07:36.680Z,47.49
2018-03-08T02:08:36.673Z,47.19
2018-03-08T02:09:36.664Z,47.29
2018-03-08T02:10:36.659Z,47.67
2018-03-08T02:11:36.653Z,47.19
2018-03-08T02:12:36.649Z,47.49
2018-03-08T02:13:36.638Z,47.67
2018-03-08T02:14:36.634Z,47.67
2018-03-08T02:15:36.626Z,47.77
2018-03-08T02:16:36.659Z,47.49
2018-03-08T02:17:36.613Z,47.58
2018-03-08T02:18:36.636Z,47.77
2018-03-08T02:19:36.621Z,47.58
2018-03-08T02:20:36.612Z,47.97
2018-03-08T02:21:36.587Z,47.77
2018-03-08T02:22:36.581Z,47.97
2018-03-08T02:23:36.572Z,47.97
2018-03-08T02:24:36.566Z,47.97
2018-03-08T02:25:36.566Z,48.06
2018-03-08T02:26:36.556Z,48.16
2018-03-08T02:27:36.548Z,48.16
2018-03-08T02:28:36.542Z,48.16
2018-03-08T02:29:36.534Z,47.77
2018-03-08T02:30:36.541Z,47.87
2018-03-08T02:31:36.522Z,47.67
2018-03-08T02:32:36.515Z,47.97
2018-03-08T02:33:36.509Z,47.87
2018-03-08T02:34:36.502Z,47.77
2018-03-08T02:35:36.503Z,47.77
2018-03-08T02:36:36.489Z,48.06
2018-03-08T02:37:36.483Z,48.06
2018-03-08T02:38:36.477Z,47.87
2018-03-08T02:39:36.471Z,47.97
2018-03-08T02:40:36.461Z,48.35
2018-03-08T02:41:36.457Z,48.16
2018-03-08T02:42:36.453Z,48.25
2018-03-08T02:43:36.449Z,48.35
2018-03-08T02:44:36.437Z,48.44
2018-03-08T02:45:36.430Z,47.97
2018-03-08T02:46:36.423Z,47.97
2018-03-08T02:47:36.417Z,48.25
2018-03-08T02:48:36.410Z,47.77
2018-03-08T02:49:36.402Z,47.97
2018-03-08T02:50:36.400Z,47.87
2018-03-08T02:51:36.391Z,48.06
2018-03-08T02:52:36.384Z,47.97
2018-03-08T02:53:36.377Z,47.97
2018-03-08T02:54:36.371Z,47.97
2018-03-08T02:55:36.380Z,47.77
2018-03-08T02:56:36.358Z,48.16
2018-03-08T02:57:36.353Z,47.77
2018-03-08T02:58:36.346Z,48.16
2018-03-08T02:59:36.340Z,47.77
2018-03-08T03:00:36.336Z,47.97
2018-03-08T03:01:36.328Z,48.16
2018-03-08T03:02:36.320Z,47.77
2018-03-08T03:03:36.312Z,47.77
2018-03-08T03:04:36.306Z,47.97
2018-03-08T03:05:36.297Z,47.97
2018-03-08T03:06:36.295Z,47.77
2018-03-08T03:07:36.287Z,47.67
2018-03-08T03:08:36.278Z,48.16
2018-03-08T03:09:36.272Z,47.77
2018-03-08T03:10:36.266Z,48.25
2018-03-08T03:11:36.259Z,47.97
2018-03-08T03:12:36.254Z,48.64
2018-03-08T03:13:36.246Z,48.25
2018-03-08T03:14:36.241Z,48.25
2018-03-08T03:15:36.236Z,48.54
2018-03-08T03:16:36.226Z,48.44
2018-03-08T03:17:36.221Z,48.54
2018-03-08T03:18:36.213Z,48.44
2018-03-08T03:19:36.211Z,48.35
2018-03-08T03:20:36.201Z,48.44
2018-03-08T03:21:36.195Z,48.16
2018-03-08T03:22:36.190Z,48.16
2018-03-08T03:23:36.183Z,48.54
2018-03-08T03:24:36.176Z,48.54
2018-03-08T03:25:36.166Z,48.35
2018-03-08T03:26:36.162Z,48.25
2018-03-08T03:27:36.156Z,48.35
2018-03-08T03:28:36.149Z,48.35
2018-03-08T03:29:36.142Z,48.35
2018-03-08T03:30:36.138Z,48.25
2018-03-08T03:31:36.130Z,48.25
2018-03-08T03:32:36.120Z,48.35
2018-03-08T03:33:36.116Z,48.16
2018-03-08T03:34:36.112Z,48.16
2018-03-08T03:35:36.102Z,48.35
2018-03-08T03:36:36.095Z,48.25
2018-03-08T03:37:36.089Z,48.06
2018-03-08T03:38:36.082Z,48.35
2018-03-08T03:39:36.080Z,48.33
2018-03-08T03:40:36.071Z,48.25
2018-03-08T03:41:36.062Z,48.33
2018-03-08T03:42:36.056Z,48.23
2018-03-08T03:43:36.049Z,48.16
2018-03-08T03:44:36.041Z,48.25
2018-03-08T03:45:36.034Z,48.35
2018-03-08T03:46:36.032Z,48.35
2018-03-08T03:47:36.026Z,48.43
2018-03-08T03:48:36.015Z,48.35
2018-03-08T03:49:36.011Z,48.16
2018-03-08T03:50:36.003Z,48.33
2018-03-08T03:51:35.999Z,48.25
2018-03-08T03:52:35.989Z,48.35
2018-03-08T03:53:35.983Z,48.35
2018-03-08T03:54:35.977Z,48.33
2018-03-08T03:55:35.970Z,48.35
2018-03-08T03:56:35.963Z,48.33
2018-03-08T03:57:35.957Z,48.35
2018-03-08T03:58:35.951Z,48.23
2018-03-08T03:59:35.944Z,48.35
2018-03-08T04:00:35.938Z,48.16
2018-03-08T04:01:35.931Z,48.35
2018-03-08T04:02:35.928Z,48.54
2018-03-08T04:03:35.918Z,48.44
2018-03-08T04:04:35.911Z,48.44
2018-03-08T04:05:35.905Z,48.16
2018-03-08T04:06:35.904Z,48.16
2018-03-08T04:07:35.892Z,48.16
2018-03-08T04:08:35.885Z,48.54
2018-03-08T04:09:35.877Z,48.44
2018-03-08T04:10:35.871Z,48.06
2018-03-08T04:11:35.864Z,48.16
2018-03-08T04:12:35.857Z,48.54
2018-03-08T04:13:35.850Z,48.44
2018-03-08T04:14:35.844Z,48.35
2018-03-08T04:15:35.843Z,48.25
2018-03-08T04:16:35.832Z,48.44
2018-03-08T04:17:35.823Z,48.38
2018-03-08T04:18:35.818Z,48.28
2018-03-08T04:19:35.813Z,48.28
2018-03-08T04:20:35.805Z,48.57
2018-03-08T04:21:35.802Z,48.57
2018-03-08T04:22:35.794Z,48.18
2018-03-08T04:23:35.790Z,48.18
2018-03-08T04:24:35.780Z,48.57
2018-03-08T04:25:35.772Z,48.28
2018-03-08T04:26:35.769Z,48.38
2018-03-08T04:27:35.759Z,48.38
2018-03-08T04:28:35.752Z,48.18
2018-03-08T04:29:35.747Z,48.08
2018-03-08T04:30:35.741Z,48.47
2018-03-08T04:31:35.736Z,48.18
2018-03-08T04:32:35.731Z,48.28
2018-03-08T04:33:35.722Z,48.38
2018-03-08T04:34:35.713Z,48.47
2018-03-08T04:35:35.711Z,48.47
2018-03-08T04:36:35.701Z,48.08
2018-03-08T04:37:35.697Z,48.57
2018-03-08T04:38:35.689Z,48.47
2018-03-08T04:39:35.682Z,48.47
2018-03-08T04:40:35.684Z,48.47
2018-03-08T04:41:35.672Z,48.57
2018-03-08T04:42:35.662Z,48.66
2018-03-08T04:43:35.657Z,48.66
2018-03-08T04:44:35.650Z,49.15
2018-03-08T04:45:35.644Z,49.24
2018-03-08T04:46:35.641Z,49.05
2018-03-08T04:47:35.635Z,49.05
2018-03-08T04:48:35.624Z,48.95
2018-03-08T04:49:35.618Z,49.05
2018-03-08T04:50:35.612Z,49.05
2018-03-08T04:51:35.606Z,48.86
2018-03-08T04:52:35.599Z,49.05
2018-03-08T04:53:35.593Z,49.15
2018-03-08T04:54:35.589Z,48.74
2018-03-08T04:55:35.577Z,48.44
2018-03-08T04:56:35.569Z,48.44
2018-03-08T04:57:35.564Z,48.44
2018-03-08T04:58:35.556Z,47.67
2018-03-08T04:59:35.550Z,48.38
2018-03-08T05:00:35.545Z,47.87
2018-03-08T05:01:35.535Z,47.67
2018-03-08T05:02:35.526Z,47.60
2018-03-08T05:03:35.520Z,47.80
2018-03-08T05:04:35.511Z,47.22
2018-03-08T05:05:35.507Z,47.22
2018-03-08T05:06:35.503Z,47.22
2018-03-08T05:07:35.489Z,47.31
2018-03-08T05:08:35.482Z,46.73
2018-03-08T05:09:35.474Z,46.93
2018-03-08T05:10:35.467Z,46.64
2018-03-08T05:11:35.459Z,46.73
2018-03-08T05:12:35.452Z,46.64
2018-03-08T05:13:35.442Z,46.64
2018-03-08T05:14:35.435Z,46.64
2018-03-08T05:15:35.428Z,46.93
2018-03-08T05:16:35.418Z,46.73
2018-03-08T05:17:35.412Z,46.64
2018-03-08T05:18:35.402Z,46.64
2018-03-08T05:19:35.396Z,46.55
2018-03-08T05:20:35.387Z,46.73
2018-03-08T05:21:35.380Z,46.83
2018-03-08T05:22:35.375Z,46.64
2018-03-08T05:23:35.366Z,46.25
2018-03-08T05:24:35.355Z,46.35
2018-03-08T05:25:35.348Z,46.15
2018-03-08T05:26:35.340Z,46.25
2018-03-08T05:27:35.335Z,46.06
2018-03-08T05:28:35.325Z,46.45
2018-03-08T05:29:35.318Z,46.45
2018-03-08T05:30:35.308Z,46.55
2018-03-08T05:31:35.324Z,46.66
2018-03-08T05:32:35.317Z,46.66
2018-03-08T05:33:35.308Z,46.15
2018-03-08T05:34:35.277Z,45.89
2018-03-08T05:35:35.270Z,45.99
2018-03-08T05:36:35.260Z,46.08
2018-03-08T05:37:35.255Z,46.08
2018-03-08T05:38:35.245Z,46.18
2018-03-08T05:39:35.240Z,45.89
2018-03-08T05:40:35.228Z,46.08
2018-03-08T05:41:35.222Z,45.70
2018-03-08T05:42:35.213Z,45.70
2018-03-08T05:43:35.206Z,45.51
2018-03-08T05:44:35.197Z,45.79
2018-03-08T05:45:35.191Z,45.60
2018-03-08T05:46:35.184Z,45.79
2018-03-08T05:47:35.176Z,45.99
2018-03-08T05:48:35.168Z,45.89
2018-03-08T05:49:35.158Z,46.08
2018-03-08T05:50:35.151Z,45.79
2018-03-08T05:51:35.147Z,46.08
2018-03-08T05:52:35.137Z,46.08
2018-03-08T05:53:35.126Z,45.79
2018-03-08T05:54:35.161Z,46.08
2018-03-08T05:55:35.111Z,45.89
2018-03-08T05:56:35.103Z,45.87
2018-03-08T05:57:35.095Z,45.99
2018-03-08T05:58:35.090Z,46.08
2018-03-08T05:59:35.086Z,45.89
2018-03-08T06:00:35.071Z,45.99
2018-03-08T06:01:35.065Z,45.79
2018-03-08T06:02:35.057Z,46.15
2018-03-08T06:03:35.048Z,45.41
2018-03-08T06:04:35.040Z,45.29
2018-03-08T06:05:35.032Z,45.31
2018-03-08T06:06:35.025Z,45.60
2018-03-08T06:07:35.018Z,45.70
2018-03-08T06:08:35.009Z,45.70
2018-03-08T06:09:35.001Z,45.77
2018-03-08T06:10:34.993Z,45.70
2018-03-08T06:11:34.986Z,45.79
2018-03-08T06:12:34.976Z,45.68
2018-03-08T06:13:34.969Z,45.70
2018-03-08T06:14:34.966Z,45.89
2018-03-08T06:15:34.958Z,45.60
2018-03-08T06:16:34.946Z,45.79
2018-03-08T06:17:34.938Z,45.79
2018-03-08T06:18:34.938Z,45.79
2018-03-08T06:19:34.923Z,45.60
2018-03-08T06:20:34.930Z,45.60
2018-03-08T06:21:34.908Z,45.60
2018-03-08T06:22:34.896Z,45.00
2018-03-08T06:23:34.893Z,44.93
2018-03-08T06:24:34.882Z,45.21
2018-03-08T06:25:34.874Z,45.21
2018-03-08T06:26:34.867Z,45.21
2018-03-08T06:27:34.858Z,45.41
2018-03-08T06:28:34.847Z,45.03
2018-03-08T06:29:34.845Z,45.31
2018-03-08T06:30:34.835Z,45.03
2018-03-08T06:31:34.826Z,45.31
2018-03-08T06:32:34.818Z,45.21
2018-03-08T06:33:34.810Z,45.21
2018-03-08T06:34:34.801Z,44.81
2018-03-08T06:35:34.793Z,45.03
2018-03-08T06:36:34.786Z,45.12
2018-03-08T06:37:34.777Z,45.10
2018-03-08T06:38:34.771Z,45.21
2018-03-08T06:39:34.763Z,45.03
2018-03-08T06:40:34.755Z,45.03
2018-03-08T06:41:34.747Z,44.83
2018-03-08T06:42:34.740Z,44.93
2018-03-08T06:43:34.729Z,44.93
2018-03-08T06:44:34.722Z,44.93
2018-03-08T06:45:34.714Z,44.73
2018-03-08T06:46:34.707Z,44.83
2018-03-08T06:47:34.698Z,44.83
2018-03-08T06:48:34.692Z,44.83
2018-03-08T06:49:34.684Z,44.83
2018-03-08T06:50:34.676Z,44.83
2018-03-08T06:51:34.668Z,44.83
2018-03-08T06:52:34.658Z,44.83
2018-03-08T06:53:34.652Z,44.83
2018-03-08T06:54:34.643Z,44.73
2018-03-08T06:55:34.635Z,44.54
2018-03-08T06:56:34.627Z,44.93
2018-03-08T06:57:34.620Z,44.93
2018-03-08T06:58:34.612Z,44.83
2018-03-08T06:59:34.604Z,45.12
2018-03-08T07:00:34.594Z,45.12
2018-03-08T07:01:34.582Z,45.03
2018-03-08T07:02:34.579Z,45.03
2018-03-08T07:03:34.578Z,45.12
2018-03-08T07:04:34.565Z,44.93
2018-03-08T07:05:34.555Z,44.93
2018-03-08T07:06:34.548Z,44.73
2018-03-08T07:07:34.537Z,44.73
2018-03-08T07:08:34.536Z,44.93
2018-03-08T07:09:34.522Z,45.03
2018-03-08T07:10:34.519Z,44.73
2018-03-08T07:11:34.510Z,44.73
2018-03-08T07:12:34.505Z,44.73
2018-03-08T07:13:34.492Z,44.83
2018-03-08T07:14:34.485Z,44.64
2018-03-08T07:15:34.478Z,44.93
2018-03-08T07:16:34.468Z,44.83
2018-03-08T07:17:34.463Z,44.93
2018-03-08T07:18:34.456Z,44.93
2018-03-08T07:19:34.476Z,44.83
2018-03-08T07:20:34.435Z,44.81
2018-03-08T07:21:34.430Z,44.83
2018-03-08T07:22:34.425Z,45.03
2018-03-08T07:23:34.417Z,44.64
2018-03-08T07:24:34.405Z,44.73
2018-03-08T07:25:34.401Z,44.54
2018-03-08T07:26:34.391Z,44.83
2018-03-08T07:27:34.383Z,44.83
2018-03-08T07:28:34.376Z,44.64
2018-03-08T07:29:34.366Z,44.93
2018-03-08T07:30:34.364Z,45.12
2018-03-08T07:31:34.351Z,44.93
2018-03-08T07:32:34.341Z,44.83
2018-03-08T07:33:34.334Z,44.93
2018-03-08T07:34:34.326Z,45.03
2018-03-08T07:35:34.319Z,44.93
2018-03-08T07:36:34.341Z,44.54
2018-03-08T07:37:34.298Z,44.64
2018-03-08T07:38:34.295Z,44.73
2018-03-08T07:39:34.288Z,44.45
2018-03-08T07:40:34.278Z,44.56
2018-03-08T07:41:34.269Z,44.27
2018-03-08T07:42:34.264Z,44.08
2018-03-08T07:43:34.256Z,43.79
2018-03-08T07:44:34.247Z,44.18
2018-03-08T07:45:34.240Z,43.72
2018-03-08T07:46:34.234Z,43.91
2018-03-08T07:47:34.225Z,43.43
2018-03-08T07:48:34.226Z,43.24
2018-03-08T07:49:34.210Z,43.24
2018-03-08T07:50:34.203Z,43.24
2018-03-08T07:51:34.195Z,43.14
2018-03-08T07:52:34.213Z,42.87
2018-03-08T07:53:34.180Z,43.06
2018-03-08T07:54:34.176Z,42.68
2018-03-08T07:55:34.165Z,42.58
2018-03-08T07:56:34.158Z,42.58
2018-03-08T07:57:34.150Z,42.29
2018-03-08T07:58:34.144Z,42.31
2018-03-08T07:59:34.138Z,41.83
2018-03-08T08:00:34.127Z,42.50
2018-03-08T08:01:34.124Z,42.60
2018-03-08T08:02:34.115Z,42.60
2018-03-08T08:03:34.108Z,42.29
2018-03-08T08:04:34.100Z,42.29
2018-03-08T08:05:34.092Z,42.39
2018-03-08T08:06:34.087Z,42.39
2018-03-08T08:07:34.083Z,42.29
2018-03-08T08:08:34.083Z,42.39
2018-03-08T08:09:34.064Z,42.48
2018-03-08T08:10:34.121Z,42.39
2018-03-08T08:11:34.050Z,42.29
2018-03-08T08:12:34.044Z,42.39
2018-03-08T08:13:34.034Z,42.39
2018-03-08T08:14:34.028Z,42.39
2018-03-08T08:15:34.023Z,42.48
2018-03-08T08:16:34.016Z,42.48
2018-03-08T08:17:34.005Z,42.39
2018-03-08T08:18:33.999Z,42.29
2018-03-08T08:19:33.991Z,42.39
2018-03-08T08:20:33.984Z,42.10
2018-03-08T08:21:33.996Z,42.00
2018-03-08T08:22:33.970Z,41.91
2018-03-08T08:23:33.963Z,42.29
2018-03-08T08:24:33.961Z,42.58
2018-03-08T08:25:33.950Z,41.91
2018-03-08T08:26:33.943Z,42.29
2018-03-08T08:27:33.937Z,42.00
2018-03-08T08:28:33.926Z,42.29
2018-03-08T08:29:33.921Z,42.39
2018-03-08T08:30:33.917Z,42.29
2018-03-08T08:31:33.908Z,42.39
2018-03-08T08:32:33.898Z,42.39
2018-03-08T08:33:33.893Z,42.48
2018-03-08T08:34:54.898Z,42.48
2018-03-08T08:35:33.881Z,42.39
2018-03-08T08:36:33.870Z,42.29
2018-03-08T08:37:33.862Z,42.29
2018-03-08T08:38:33.858Z,42.58
2018-03-08T08:39:33.849Z,42.39
2018-03-08T08:40:33.844Z,42.58
2018-03-08T08:41:33.833Z,42.29
2018-03-08T08:42:33.831Z,42.48
2018-03-08T08:43:33.819Z,42.29
2018-03-08T08:44:33.812Z,42.48
2018-03-08T08:45:33.804Z,42.10
2018-03-08T08:46:33.800Z,42.48
2018-03-08T08:47:33.791Z,42.29
2018-03-08T08:48:33.782Z,42.19
2018-03-08T08:49:33.779Z,42.10
2018-03-08T08:50:33.770Z,42.19
2018-03-08T08:51:33.763Z,42.10
2018-03-08T08:52:33.754Z,41.91
2018-03-08T08:53:33.747Z,42.10
2018-03-08T08:54:33.795Z,42.00
2018-03-08T08:55:33.734Z,41.73
2018-03-08T08:56:33.728Z,41.73
2018-03-08T08:57:33.719Z,41.35
2018-03-08T08:58:33.713Z,41.63
2018-03-08T08:59:33.706Z,41.83
2018-03-08T09:00:33.696Z,41.63
2018-03-08T09:01:33.692Z,41.44
2018-03-08T09:02:33.684Z,41.35
2018-03-08T09:03:33.678Z,41.25
2018-03-08T09:04:33.671Z,41.54
2018-03-08T09:05:33.663Z,41.54
2018-03-08T09:06:33.656Z,41.63
2018-03-08T09:07:33.672Z,41.05
2018-03-08T09:08:33.642Z,41.35
2018-03-08T09:09:33.635Z,41.05
2018-03-08T09:10:33.629Z,41.63
2018-03-08T09:11:33.623Z,41.44
2018-03-08T09:12:33.613Z,41.44
2018-03-08T09:13:33.607Z,41.63
2018-03-08T09:14:33.600Z,41.63
2018-03-08T09:15:33.593Z,41.63
2018-03-08T09:16:33.585Z,41.63
2018-03-08T09:17:33.580Z,41.33
2018-03-08T09:18:33.571Z,41.54
2018-03-08T09:19:33.565Z,41.25
2018-03-08T09:20:33.592Z,41.33
2018-03-08T09:21:33.578Z,41.52
2018-03-08T09:22:33.590Z,41.61
2018-03-08T09:23:33.536Z,41.63
2018-03-08T09:24:33.552Z,41.35
2018-03-08T09:25:33.525Z,41.63
2018-03-08T09:26:33.513Z,41.44
2018-03-08T09:27:33.514Z,41.35
2018-03-08T09:28:33.501Z,41.25
2018-03-08T09:29:33.496Z,41.15
2018-03-08T09:30:33.487Z,41.25
2018-03-08T09:31:33.480Z,41.63
2018-03-08T09:32:33.471Z,41.35
2018-03-08T09:33:33.469Z,41.44
2018-03-08T09:34:33.458Z,41.73
2018-03-08T09:35:33.452Z,41.63
2018-03-08T09:36:33.474Z,41.44
2018-03-08T09:37:33.437Z,41.63
2018-03-08T09:38:33.437Z,41.63
2018-03-08T09:39:33.424Z,41.33
2018-03-08T09:40:33.418Z,41.33
2018-03-08T09:41:33.411Z,41.54
2018-03-08T09:42:33.403Z,41.52
2018-03-08T09:43:33.397Z,41.54
2018-03-08T09:44:33.387Z,41.73
2018-03-08T09:45:33.381Z,41.63
2018-03-08T09:46:33.375Z,41.35
2018-03-08T09:47:33.370Z,41.15
2018-03-08T09:48:33.360Z,41.35
2018-03-08T09:49:33.355Z,41.35
2018-03-08T09:50:33.346Z,41.15
2018-03-08T09:51:33.341Z,40.98
2018-03-08T09:52:33.332Z,40.59
2018-03-08T09:53:33.327Z,40.59
2018-03-08T09:54:33.322Z,40.40
2018-03-08T09:55:33.314Z,40.42
2018-03-08T09:56:33.306Z,40.13
2018-03-08T09:57:33.300Z,40.13
2018-03-08T09:58:33.294Z,39.94
2018-03-08T09:59:33.286Z,39.67
2018-03-08T10:00:33.277Z,39.67
2018-03-08T10:01:33.278Z,39.47
2018-03-08T10:02:33.268Z,39.86
2018-03-08T10:03:33.284Z,39.86
2018-03-08T10:04:33.254Z,39.76
2018-03-08T10:05:33.298Z,39.95
2018-03-08T10:06:33.242Z,39.86
2018-03-08T10:07:33.237Z,39.47
2018-03-08T10:08:33.227Z,39.76
2018-03-08T10:09:33.223Z,39.86
2018-03-08T10:10:33.217Z,39.64
2018-03-08T10:11:33.212Z,39.74
2018-03-08T10:12:33.206Z,40.03
2018-03-08T10:13:33.199Z,40.03
2018-03-08T10:14:33.191Z,39.94
2018-03-08T10:15:33.185Z,40.13
2018-03-08T10:16:33.179Z,40.13
2018-03-08T10:17:33.172Z,40.03
2018-03-08T10:18:33.164Z,40.01
2018-03-08T10:19:33.160Z,40.20
2018-03-08T10:20:33.153Z,40.20
2018-03-08T10:21:45.061Z,40.30
2018-03-08T10:22:33.184Z,40.50
2018-03-08T10:23:33.134Z,40.59
2018-03-08T10:24:33.128Z,40.40
2018-03-08T10:25:33.115Z,40.67
2018-03-08T10:26:33.113Z,40.69
2018-03-08T10:27:33.106Z,40.38
2018-03-08T10:28:33.101Z,40.57
2018-03-08T10:29:33.093Z,40.47
2018-03-08T10:30:33.086Z,40.96
2018-03-08T10:31:33.080Z,40.86
2018-03-08T10:32:33.073Z,40.86
2018-03-08T10:33:33.065Z,40.77
2018-03-08T10:34:33.059Z,40.57
2018-03-08T10:35:47.807Z,40.57
2018-03-08T10:36:33.047Z,40.47
2018-03-08T10:37:33.040Z,40.69
2018-03-08T10:38:33.035Z,40.40
2018-03-08T10:39:33.028Z,40.40
2018-03-08T10:43:33.001Z,40.57
2018-03-08T10:44:32.992Z,40.59
2018-03-08T10:45:32.989Z,40.47
2018-03-08T10:46:32.979Z,40.19
2018-03-08T10:47:32.974Z,40.47
2018-03-08T10:48:32.965Z,40.50
2018-03-08T10:49:32.963Z,40.40
2018-03-08T10:50:32.954Z,40.20
2018-03-08T10:51:32.946Z,40.13
2018-03-08T10:52:32.941Z,40.03
2018-03-08T10:53:32.937Z,40.03
2018-03-08T10:54:32.926Z,39.94
2018-03-08T10:55:32.920Z,39.74
2018-03-08T10:56:32.912Z,39.74
2018-03-08T10:57:32.908Z,39.74
2018-03-08T10:58:33.250Z,39.64
2018-03-08T10:59:32.893Z,39.64
2018-03-08T11:00:32.902Z,39.64
2018-03-08T11:01:32.882Z,39.92
2018-03-08T11:02:32.874Z,40.11
2018-03-08T11:03:32.870Z,40.30
2018-03-08T11:04:32.862Z,40.20
2018-03-08T11:05:32.855Z,40.30
2018-03-08T11:06:32.849Z,40.30
2018-03-08T11:07:32.842Z,40.47
2018-03-08T11:08:32.836Z,40.47
2018-03-08T11:09:32.830Z,40.28
2018-03-08T11:10:32.822Z,40.67
2018-03-08T11:11:32.816Z,41.05
2018-03-08T11:12:32.814Z,41.05
2018-03-08T11:13:32.800Z,41.05
2018-03-08T11:14:32.793Z,41.03
2018-03-08T11:15:32.787Z,41.23
2018-03-08T11:16:32.780Z,41.13
2018-03-08T11:17:32.774Z,41.42
2018-03-08T11:18:32.771Z,41.23
2018-03-08T11:19:32.760Z,41.03
2018-03-08T11:20:32.753Z,41.52
2018-03-08T11:21:32.746Z,41.42
2018-03-08T11:22:32.741Z,41.61
2018-03-08T11:23:32.732Z,41.42
2018-03-08T11:24:32.727Z,41.52
2018-03-08T11:25:32.720Z,41.42
2018-03-08T11:26:32.712Z,41.33
2018-03-08T11:27:32.706Z,41.23
2018-03-08T11:28:32.697Z,41.03
2018-03-08T11:29:32.690Z,41.33
2018-03-08T11:30:32.684Z,41.33
2018-03-08T11:31:32.678Z,41.33
2018-03-08T11:32:32.669Z,41.42
2018-03-08T11:33:32.664Z,41.42
2018-03-08T11:34:32.654Z,41.52
2018-03-08T11:35:32.649Z,41.42
2018-03-08T11:36:32.640Z,41.42
2018-03-08T11:37:32.634Z,41.42
2018-03-08T11:38:32.629Z,41.42
2018-03-08T11:39:34.095Z,41.52
2018-03-08T11:40:32.611Z,41.03
2018-03-08T11:41:32.605Z,41.42
2018-03-08T11:42:32.600Z,40.96
2018-03-08T11:43:32.594Z,41.05
2018-03-08T11:44:32.584Z,41.25
2018-03-08T11:45:32.587Z,41.05
2018-03-08T11:46:32.573Z,41.05
2018-03-08T11:47:32.562Z,41.25
2018-03-08T11:48:33.810Z,41.25
2018-03-08T11:49:32.548Z,41.05
2018-03-08T11:50:32.542Z,41.35
2018-03-08T11:51:32.538Z,41.15
2018-03-08T11:52:32.532Z,41.03
2018-03-08T11:53:33.687Z,41.25
2018-03-08T11:54:32.514Z,41.15
2018-03-08T11:55:32.507Z,41.15
2018-03-08T11:56:32.500Z,41.03
2018-03-08T11:57:32.494Z,40.94
2018-03-08T11:58:32.487Z,41.23
2018-03-08T11:59:32.480Z,41.33
2018-03-08T12:00:32.473Z,41.33
2018-03-08T12:01:32.467Z,41.23
2018-03-08T12:02:32.458Z,41.03
2018-03-08T12:03:32.451Z,41.23
2018-03-08T12:04:32.443Z,41.23
2018-03-08T12:05:32.437Z,41.23
2018-03-08T12:06:32.429Z,41.33
2018-03-08T12:07:32.423Z,41.33
2018-03-08T12:08:32.415Z,41.23
2018-03-08T12:09:32.410Z,41.52
2018-03-08T12:10:32.403Z,41.03
2018-03-08T12:11:32.394Z,41.42
2018-03-08T12:12:32.390Z,41.13
2018-03-08T12:13:32.379Z,41.13
2018-03-08T12:14:32.379Z,41.23
2018-03-08T12:15:32.369Z,41.13
2018-03-08T12:16:32.354Z,41.25
2018-03-08T12:17:32.350Z,41.23
2018-03-08T12:18:32.344Z,41.23
2018-03-08T12:19:32.337Z,41.13
2018-03-08T12:20:32.330Z,41.33
2018-03-08T12:21:32.322Z,41.23
2018-03-08T12:22:32.315Z,41.33
2018-03-08T12:23:32.313Z,41.33
2018-03-08T12:24:32.302Z,41.23
2018-03-08T12:25:32.294Z,41.03
2018-03-08T12:26:32.293Z,41.13
2018-03-08T12:27:32.281Z,41.03
2018-03-08T12:28:32.272Z,41.23
2018-03-08T12:29:32.266Z,41.13
2018-03-08T12:30:32.259Z,41.35
2018-03-08T12:31:32.255Z,41.35
2018-03-08T12:32:32.244Z,41.15
2018-03-08T12:33:32.236Z,41.15
2018-03-08T12:34:32.232Z,41.15
2018-03-08T12:35:32.227Z,41.05
2018-03-08T12:36:32.217Z,41.25
2018-03-08T12:37:32.238Z,41.05
2018-03-08T12:38:32.201Z,41.03
2018-03-08T12:39:32.196Z,41.03
2018-03-08T12:40:32.213Z,41.23
2018-03-08T12:41:32.201Z,41.33
2018-03-08T12:42:32.189Z,41.15
2018-03-08T12:43:32.159Z,41.25
2018-03-08T12:44:32.170Z,41.05
2018-03-08T12:45:32.154Z,41.25
2018-03-08T12:46:32.148Z,41.25
2018-03-08T12:47:32.141Z,41.25
2018-03-08T12:48:32.130Z,41.13
2018-03-08T12:49:32.124Z,41.05
2018-03-08T12:50:32.115Z,41.25
2018-03-08T12:51:32.110Z,41.03
2018-03-08T12:52:32.107Z,41.03
2018-03-08T12:53:32.098Z,41.13
2018-03-08T12:54:32.087Z,41.23
2018-03-08T12:55:32.083Z,41.23